Time;durP1;ratioP1;P1;durP2;ratioP2;P2;SDS_P1;SDS_P2;PMS_P1;PMS_P2;Temp;Humidity;BMP_temperature;BMP_pressure;BME280_temperature;BME280_humidity;BME280_pressure;Samples;Min_cycle;Max_cycle;Signal;HPM_P1;HPM_P2
2023/08/10 00:01:59;;;;;;;9.93;3.00;;;;;;;24.62;56.79;97780.25;5048762;28;20190;-38
2023/08/10 00:04:26;;;;;;;6.13;2.70;;;;;;;24.78;56.74;97816.63;5043106;28;20412;-36
2023/08/10 00:06:52;;;;;;;6.17;2.70;;;;;;;24.74;56.58;97811.41;5044443;28;20230;-39
2023/08/10 00:09:19;;;;;;;6.63;2.90;;;;;;;24.70;56.93;97800.22;5042943;28;20236;-47
2023/08/10 00:11:45;;;;;;;4.53;2.63;;;;;;;24.66;57.07;97803.53;5040779;28;20233;-42
2023/08/10 00:14:12;;;;;;;6.60;3.07;;;;;;;24.75;56.71;97824.28;5055820;28;20208;-41
2023/08/10 00:16:39;;;;;;;5.00;2.50;;;;;;;24.61;57.03;97797.41;5050675;28;20212;-47
2023/08/10 00:19:06;;;;;;;8.63;3.27;;;;;;;24.63;56.91;97798.28;5034356;28;20204;-44
2023/08/10 00:21:32;;;;;;;7.00;2.73;;;;;;;24.62;56.77;97793.13;5059777;28;20177;-44
2023/08/10 00:23:59;;;;;;;8.33;3.00;;;;;;;24.59;56.86;97793.94;5047083;28;20191;-50
2023/08/10 00:26:25;;;;;;;6.97;2.80;;;;;;;24.75;57.12;97815.72;5059736;28;20190;-39
2023/08/10 00:28:52;;;;;;;5.03;2.40;;;;;;;24.69;57.34;97801.03;5056596;28;20194;-56
2023/08/10 00:31:19;;;;;;;4.93;2.50;;;;;;;24.61;57.08;97797.41;5041517;28;20181;-45
2023/08/10 00:33:46;;;;;;;6.53;2.87;;;;;;;24.58;57.09;97783.63;5050026;28;20217;-46
2023/08/10 00:36:13;;;;;;;7.77;3.10;;;;;;;24.52;57.11;97774.09;5042058;28;20185;-43
2023/08/10 00:38:39;;;;;;;3.80;2.30;;;;;;;24.54;57.76;97781.81;5053683;28;20217;-41
2023/08/10 00:41:06;;;;;;;5.10;2.40;;;;;;;24.68;57.83;97803.56;5043882;28;20213;-38
2023/08/10 00:43:33;;;;;;;5.17;2.40;;;;;;;24.58;57.63;97786.19;5044347;28;20204;-49
2023/08/10 00:46:00;;;;;;;5.60;2.60;;;;;;;24.58;57.73;97792.22;5048794;28;20197;-52
2023/08/10 00:48:26;;;;;;;4.10;2.20;;;;;;;24.59;57.77;97788.78;5055332;28;20174;-54
2023/08/10 00:50:53;;;;;;;7.57;2.50;;;;;;;24.60;57.71;97785.38;5038113;28;20230;-35
2023/08/10 00:53:20;;;;;;;5.27;2.23;;;;;;;24.69;57.72;97810.47;5027639;28;20210;-43
2023/08/10 00:55:51;;;;;;;4.07;2.20;;;;;;;24.60;57.72;97789.66;5071053;28;20182;-41
2023/08/10 00:58:19;;;;;;;4.63;2.33;;;;;;;24.71;57.55;97812.22;5046927;28;20257;-45
2023/08/10 01:00:46;;;;;;;4.80;2.23;;;;;;;24.66;57.27;97797.53;5036442;28;20240;-40
2023/08/10 01:03:13;;;;;;;4.47;2.50;;;;;;;24.63;57.84;97794.88;5065680;28;20220;-51
2023/08/10 01:05:46;;;;;;;5.70;2.40;;;;;;;24.63;57.58;97795.72;5062337;28;20189;-45
2023/08/10 01:08:21;;;;;;;4.07;2.40;;;;;;;24.74;57.56;97813.97;5026091;28;20240;-36
2023/08/10 01:11:11;;;;;;;5.87;2.47;;;;;;;24.67;57.35;97812.13;5016683;28;20227;-39
2023/08/10 01:13:46;;;;;;;2.30;2.00;;;;;;;24.78;57.54;97826.91;5050583;28;20206;-53
2023/08/10 01:16:12;;;;;;;3.57;1.90;;;;;;;24.69;57.50;97813.88;5037724;28;20197;-38
2023/08/10 01:18:39;;;;;;;3.73;2.33;;;;;;;24.65;57.86;97814.66;5040898;28;20376;-53
2023/08/10 01:21:22;;;;;;;3.10;2.13;;;;;;;24.74;57.54;97821.69;5004611;28;20307;-40
2023/08/10 01:23:48;;;;;;;2.40;1.93;;;;;;;24.79;57.62;97827.81;5026988;28;20189;-51
2023/08/10 01:26:16;;;;;;;5.17;2.10;;;;;;;24.74;57.83;97825.13;5022042;28;20182;-41
2023/08/10 01:28:42;;;;;;;2.73;1.90;;;;;;;24.79;57.46;97830.38;5040583;28;20189;-47
2023/08/10 01:31:09;;;;;;;3.30;2.20;;;;;;;24.68;57.52;97816.41;5042824;28;20182;-52
2023/08/10 01:33:36;;;;;;;2.73;2.10;;;;;;;24.78;57.20;97832.06;5037814;28;20338;-47
2023/08/10 01:36:03;;;;;;;6.10;2.47;;;;;;;24.79;57.66;97836.38;5051843;28;20208;-44
2023/08/10 01:38:29;;;;;;;2.80;1.90;;;;;;;24.80;57.71;97839.81;5058308;28;20182;-49
2023/08/10 01:40:56;;;;;;;3.77;2.20;;;;;;;24.83;57.67;97842.44;5058568;28;20185;-45
2023/08/10 01:43:22;;;;;;;3.63;2.00;;;;;;;24.75;57.57;97829.44;5071000;28;20194;-44
2023/08/10 01:45:49;;;;;;;2.73;1.73;;;;;;;24.75;57.28;97831.16;5063022;28;20185;-48
2023/08/10 01:48:21;;;;;;;5.40;1.90;;;;;;;24.66;57.29;97820.66;5022730;28;20202;-45
2023/08/10 01:50:49;;;;;;;3.03;1.93;;;;;;;24.81;57.74;97839.84;5060705;28;20653;-41
2023/08/10 01:53:17;;;;;;;3.43;1.90;;;;;;;24.74;57.56;97824.25;5051101;28;20217;-52
2023/08/10 01:55:44;;;;;;;2.20;1.90;;;;;;;24.81;57.72;97832.13;5023815;28;20202;-40
2023/08/10 01:58:10;;;;;;;2.27;1.80;;;;;;;24.78;57.83;97834.63;5060923;28;20197;-48
2023/08/10 02:00:37;;;;;;;3.07;2.00;;;;;;;24.68;57.89;97813.84;5044122;28;20197;-47
2023/08/10 02:03:04;;;;;;;2.00;1.80;;;;;;;24.80;57.40;97844.94;5050750;28;20214;-48
2023/08/10 02:05:32;;;;;;;2.90;1.90;;;;;;;24.77;57.53;97834.59;5046820;28;20508;-49
2023/08/10 02:07:58;;;;;;;3.43;1.93;;;;;;;24.70;57.47;97823.34;5048777;28;20205;-46
2023/08/10 02:10:25;;;;;;;2.83;1.83;;;;;;;24.69;57.55;97821.59;5068595;28;20248;-39
2023/08/10 02:12:52;;;;;;;2.37;1.93;;;;;;;24.83;57.87;97847.59;5040637;28;20214;-39
2023/08/10 02:15:18;;;;;;;2.30;1.80;;;;;;;24.85;57.60;97851.94;5061228;28;20178;-47
2023/08/10 02:17:45;;;;;;;3.30;1.83;;;;;;;24.78;57.62;97842.34;5038612;28;20201;-48
2023/08/10 02:20:12;;;;;;;3.13;1.60;;;;;;;24.78;57.79;97838.94;5041737;28;20252;-52
2023/08/10 02:22:42;;;;;;;1.97;1.77;;;;;;;24.73;57.86;97830.25;5037351;28;20334;-39
2023/08/10 02:25:09;;;;;;;3.07;1.73;;;;;;;24.84;58.17;97845.03;5043865;28;20181;-43
2023/08/10 02:27:35;;;;;;;4.57;1.87;;;;;;;24.76;57.56;97846.59;5064912;28;20275;-45
2023/08/10 02:30:02;;;;;;;3.33;1.93;;;;;;;24.84;57.88;97851.91;5051608;28;20223;-43
2023/08/10 02:32:29;;;;;;;3.67;1.70;;;;;;;24.82;57.71;97857.03;5045398;28;20253;-42
2023/08/10 02:34:55;;;;;;;4.37;1.87;;;;;;;24.66;57.61;97825.81;5056027;28;20206;-52
2023/08/10 02:37:22;;;;;;;3.43;1.87;;;;;;;24.74;57.58;97831.97;5034093;28;20256;-42
2023/08/10 02:39:49;;;;;;;3.60;1.77;;;;;;;24.74;58.00;97843.13;5055451;28;20202;-45
2023/08/10 02:42:15;;;;;;;2.80;1.87;;;;;;;24.82;57.81;97853.56;5061690;28;20193;-42
2023/08/10 02:44:43;;;;;;;3.53;1.90;;;;;;;24.71;57.79;97835.34;5063285;28;20186;-52
2023/08/10 02:47:10;;;;;;;3.03;1.70;;;;;;;24.73;57.54;97837.94;5045657;28;20182;-46
2023/08/10 02:49:36;;;;;;;2.80;1.67;;;;;;;24.77;58.13;97850.03;5043156;28;20226;-43
2023/08/10 02:52:03;;;;;;;2.90;1.80;;;;;;;24.83;57.72;97848.47;5056987;28;20178;-40
2023/08/10 02:54:30;;;;;;;3.10;1.83;;;;;;;24.84;57.74;97857.91;5059165;28;20194;-48
2023/08/10 02:56:57;;;;;;;4.43;1.97;;;;;;;24.79;58.03;97843.22;5036821;28;20198;-53
2023/08/10 02:59:23;;;;;;;2.97;1.60;;;;;;;24.82;58.14;97851.00;5050639;28;20243;-40
2023/08/10 03:01:50;;;;;;;2.83;1.70;;;;;;;24.85;57.81;97859.66;5048529;28;20178;-47
2023/08/10 03:04:17;;;;;;;1.83;1.43;;;;;;;24.73;58.12;97838.84;5039579;28;20205;-43
2023/08/10 03:06:43;;;;;;;2.93;1.53;;;;;;;24.83;57.91;97857.88;5061083;28;20208;-44
2023/08/10 03:09:10;;;;;;;2.67;1.80;;;;;;;24.74;57.94;97842.25;5061102;28;20244;-48
2023/08/10 03:11:37;;;;;;;2.80;1.80;;;;;;;24.78;57.78;97851.78;5048577;28;20261;-49
2023/08/10 03:14:03;;;;;;;2.33;1.70;;;;;;;24.85;57.67;97859.66;5058977;28;20208;-38
2023/08/10 03:16:31;;;;;;;2.37;1.60;;;;;;;24.72;57.85;97836.22;5050798;28;20194;-34
2023/08/10 03:18:57;;;;;;;3.00;1.83;;;;;;;24.71;57.91;97835.34;5051803;28;20233;-40
2023/08/10 03:21:24;;;;;;;1.83;1.53;;;;;;;24.77;58.24;97850.03;5055643;28;20204;-45
2023/08/10 03:23:51;;;;;;;1.83;1.43;;;;;;;24.85;57.78;97864.81;5031781;28;20186;-54
2023/08/10 03:26:18;;;;;;;2.77;1.70;;;;;;;24.66;58.21;97839.50;5058166;28;20181;-47
2023/08/10 03:28:46;;;;;;;1.80;1.50;;;;;;;24.68;57.81;97837.84;5044724;28;20187;-40
2023/08/10 03:31:12;;;;;;;1.97;1.60;;;;;;;24.72;58.04;97857.63;5062824;28;20215;-36
2023/08/10 03:33:40;;;;;;;2.80;1.77;;;;;;;24.78;57.80;97862.06;5055113;28;20209;-42
2023/08/10 03:36:06;;;;;;;1.67;1.50;;;;;;;24.82;57.90;97879.28;5051966;28;20205;-42
2023/08/10 03:38:33;;;;;;;1.53;1.43;;;;;;;24.73;58.22;97861.97;5050481;28;20197;-41
2023/08/10 03:41:00;;;;;;;1.50;1.40;;;;;;;24.68;57.81;97858.41;5047221;28;20256;-56
2023/08/10 03:43:26;;;;;;;1.67;1.40;;;;;;;24.84;57.95;97885.34;5064246;28;20182;-42
2023/08/10 03:45:53;;;;;;;1.57;1.47;;;;;;;24.69;58.14;97851.59;5052039;28;20202;-54
2023/08/10 03:48:19;;;;;;;2.23;1.50;;;;;;;24.81;58.05;97880.97;5051146;28;20180;-47
2023/08/10 03:50:46;;;;;;;1.37;1.27;;;;;;;24.52;58.09;97829.75;5048529;28;20214;-40
2023/08/10 03:53:12;;;;;;;1.57;1.47;;;;;;;24.83;57.70;97883.59;5045834;28;20601;-40
2023/08/10 03:55:39;;;;;;;1.97;1.50;;;;;;;24.76;57.97;97877.47;5047655;28;20201;-49
2023/08/10 03:58:06;;;;;;;1.40;1.30;;;;;;;24.87;58.14;97888.81;5042569;28;20182;-52
2023/08/10 04:00:33;;;;;;;1.40;1.30;;;;;;;24.83;58.13;97883.59;5047876;28;20197;-47
2023/08/10 04:02:59;;;;;;;1.47;1.30;;;;;;;24.89;57.93;97886.28;5057887;28;20224;-43
2023/08/10 04:05:27;;;;;;;1.40;1.30;;;;;;;24.83;57.88;97888.72;5056289;28;20177;-39
2023/08/10 04:07:53;;;;;;;1.57;1.30;;;;;;;24.72;57.66;97867.91;5034572;28;20205;-53
2023/08/10 04:10:20;;;;;;;2.53;1.60;;;;;;;24.82;57.63;97885.31;5049678;28;20203;-47
2023/08/10 04:12:47;;;;;;;1.60;1.50;;;;;;;24.88;58.17;97906.00;5044664;28;20213;-45
2023/08/10 04:15:13;;;;;;;1.57;1.30;;;;;;;24.74;57.97;97867.97;5066018;28;20217;-39
2023/08/10 04:17:40;;;;;;;2.53;1.60;;;;;;;24.89;57.70;97901.72;5048917;28;20188;-44
2023/08/10 04:20:09;;;;;;;1.63;1.30;;;;;;;24.88;58.00;97895.72;5046166;28;20198;-47
2023/08/10 04:22:36;;;;;;;1.30;1.20;;;;;;;24.84;57.81;97895.63;5064414;28;20181;-41
2023/08/10 04:25:03;;;;;;;1.20;1.10;;;;;;;24.75;57.69;97880.00;5063630;28;20202;-51
2023/08/10 04:27:31;;;;;;;2.07;1.30;;;;;;;24.92;57.97;97904.34;5066154;28;20181;-52
2023/08/10 04:29:58;;;;;;;1.40;1.30;;;;;;;24.91;58.12;97916.38;5055195;28;20221;-50
2023/08/10 04:32:24;;;;;;;1.30;1.20;;;;;;;24.79;58.22;97889.50;5056999;28;20224;-40
2023/08/10 04:34:51;;;;;;;1.60;1.40;;;;;;;24.85;57.78;97903.38;5058947;28;20196;-41
2023/08/10 04:37:18;;;;;;;1.63;1.30;;;;;;;24.95;58.26;97918.16;5040589;28;20190;-44
2023/08/10 04:39:45;;;;;;;2.20;1.23;;;;;;;24.81;58.35;97890.41;5051717;28;20218;-37
2023/08/10 04:42:11;;;;;;;1.93;1.50;;;;;;;24.83;57.83;97894.75;5062727;28;20205;-36
2023/08/10 04:44:38;;;;;;;3.13;1.30;;;;;;;24.78;58.02;97887.78;5058706;28;20200;-44
2023/08/10 04:47:04;;;;;;;1.43;1.33;;;;;;;24.81;58.14;97887.84;5046872;28;20194;-46
2023/08/10 04:49:33;;;;;;;1.33;1.23;;;;;;;24.76;58.08;97882.59;5053279;28;20228;-41
2023/08/10 04:52:00;;;;;;;1.80;1.40;;;;;;;24.96;58.27;97917.31;5057064;28;20225;-55
2023/08/10 04:54:26;;;;;;;3.90;1.30;;;;;;;24.85;57.85;97898.22;5057104;28;20237;-50
2023/08/10 04:56:53;;;;;;;1.30;1.20;;;;;;;24.94;57.89;97910.41;5063190;28;20178;-42
2023/08/10 04:59:19;;;;;;;1.30;1.20;;;;;;;24.95;57.94;97920.72;5045784;28;20262;-50
2023/08/10 05:01:46;;;;;;;1.43;1.20;;;;;;;24.84;54.41;97895.63;5049400;28;20200;-44
2023/08/10 05:04:14;;;;;;;4.37;1.70;;;;;;;24.84;52.14;97909.31;5054784;28;20749;-37
2023/08/10 05:06:41;;;;;;;1.80;1.40;;;;;;;24.90;50.02;97917.16;5052620;28;20259;-37
2023/08/10 05:09:09;;;;;;;6.37;1.73;;;;;;;24.95;49.04;97920.72;5049423;28;20218;-49
2023/08/10 05:11:35;;;;;;;1.40;1.30;;;;;;;25.02;48.15;97932.88;5050669;28;20198;-39
2023/08/10 05:14:02;;;;;;;1.50;1.40;;;;;;;24.95;47.03;97912.13;5060688;28;20201;-41
2023/08/10 05:16:29;;;;;;;3.57;1.60;;;;;;;24.93;46.80;97911.25;5048547;28;20236;-51
2023/08/10 05:18:56;;;;;;;1.30;1.20;;;;;;;24.97;46.90;97913.91;5053048;28;20252;-52
2023/08/10 05:21:22;;;;;;;1.47;1.37;;;;;;;25.13;47.51;97936.56;5053926;28;20198;-51
2023/08/10 05:23:49;;;;;;;3.30;1.30;;;;;;;25.09;47.78;97931.31;5044881;28;20197;-46
2023/08/10 05:26:16;;;;;;;3.33;1.20;;;;;;;25.10;47.90;97933.91;5064102;28;20273;-44
2023/08/10 05:28:42;;;;;;;3.37;1.63;;;;;;;25.20;46.85;97945.28;5050432;28;20198;-43
2023/08/10 05:31:09;;;;;;;1.97;1.40;;;;;;;25.20;46.44;97941.81;5054750;28;20206;-41
2023/08/10 05:33:36;;;;;;;3.20;1.40;;;;;;;25.23;46.80;97944.47;5061850;28;20272;-43
2023/08/10 05:36:02;;;;;;;2.20;1.40;;;;;;;25.21;47.29;97943.56;5064113;28;20224;-42
2023/08/10 05:38:29;;;;;;;1.40;1.30;;;;;;;25.13;47.66;97933.09;5059048;28;20185;-52
2023/08/10 05:40:56;;;;;;;1.33;1.20;;;;;;;25.20;46.29;97944.41;5057918;28;20179;-44
2023/08/10 05:43:22;;;;;;;1.10;1.10;;;;;;;25.29;46.01;97954.88;5052541;28;20181;-40
2023/08/10 05:45:49;;;;;;;1.30;1.20;;;;;;;25.20;44.79;97934.13;5064990;28;20276;-46
2023/08/10 05:48:16;;;;;;;1.50;1.40;;;;;;;25.16;45.88;97922.88;5037130;28;20257;-37
2023/08/10 05:50:43;;;;;;;1.40;1.30;;;;;;;25.31;46.33;97943.78;5051700;28;20213;-38
2023/08/10 05:53:10;;;;;;;1.30;1.20;;;;;;;25.22;46.67;97935.03;5064206;28;20225;-47
2023/08/10 05:55:36;;;;;;;1.33;1.20;;;;;;;25.27;46.22;97939.41;5040646;28;20194;-45
2023/08/10 05:58:03;;;;;;;1.17;1.10;;;;;;;25.20;45.66;97932.41;5039894;28;20186;-45
2023/08/10 06:00:30;;;;;;;1.40;1.30;;;;;;;25.22;46.27;97932.44;5046027;28;20214;-45
2023/08/10 06:02:57;;;;;;;1.40;1.30;;;;;;;25.24;47.10;97947.06;5051175;28;20187;-45
2023/08/10 06:05:24;;;;;;;2.33;1.10;;;;;;;25.30;47.18;97949.78;5053215;28;20198;-46
2023/08/10 06:07:51;;;;;;;2.63;1.47;;;;;;;25.33;46.24;97954.13;5053791;28;20232;-46
2023/08/10 06:10:18;;;;;;;2.77;1.30;;;;;;;25.29;46.07;97942.91;5055489;28;20232;-47
2023/08/10 06:12:45;;;;;;;3.07;1.37;;;;;;;25.30;46.51;97954.03;5055570;28;20185;-37
2023/08/10 06:15:12;;;;;;;1.30;1.20;;;;;;;25.20;46.69;97939.25;5038568;28;20205;-40
2023/08/10 06:17:39;;;;;;;1.40;1.30;;;;;;;25.32;47.09;97957.53;5053543;28;20202;-51
2023/08/10 06:20:16;;;;;;;1.53;1.23;;;;;;;25.32;46.00;97948.16;5051896;28;20252;-40
2023/08/10 06:22:44;;;;;;;1.60;1.20;;;;;;;25.30;46.42;97949.78;5056344;28;20243;-45
2023/08/10 06:25:12;;;;;;;1.40;1.30;;;;;;;25.22;46.98;97941.00;5050551;28;20185;-41
2023/08/10 06:27:39;;;;;;;2.50;1.30;;;;;;;25.21;47.22;97933.25;5031405;28;20192;-46
2023/08/10 06:30:06;;;;;;;1.40;1.30;;;;;;;25.39;46.79;97964.56;5046035;28;20218;-43
2023/08/10 06:32:34;;;;;;;3.17;1.47;;;;;;;25.21;45.83;97936.72;5038803;28;20189;-36
2023/08/10 06:35:00;;;;;;;1.40;1.30;;;;;;;25.35;44.99;97955.06;5038151;28;20244;-42
2023/08/10 06:37:28;;;;;;;1.30;1.20;;;;;;;25.39;44.71;97967.13;5051103;28;20197;-53
2023/08/10 06:39:54;;;;;;;1.37;1.27;;;;;;;25.39;44.31;97962.00;5044943;28;20217;-50
2023/08/10 06:42:22;;;;;;;1.40;1.30;;;;;;;25.17;45.73;97933.19;5051720;28;20188;-48
2023/08/10 06:44:49;;;;;;;1.33;1.23;;;;;;;25.09;46.19;97921.91;5055662;28;20184;-51
2023/08/10 06:47:15;;;;;;;1.33;1.20;;;;;;;25.28;45.61;97954.00;5057637;28;20194;-48
2023/08/10 06:49:42;;;;;;;1.63;1.30;;;;;;;25.41;45.38;97974.06;5051110;28;20250;-36
2023/08/10 06:52:09;;;;;;;1.60;1.40;;;;;;;25.40;45.95;97979.19;5047996;28;20200;-45
2023/08/10 06:54:36;;;;;;;1.30;1.20;;;;;;;25.37;46.35;97981.69;5054857;28;20225;-41
2023/08/10 06:57:03;;;;;;;1.80;1.30;;;;;;;25.28;46.32;97963.44;5048765;28;20182;-46
2023/08/10 06:59:32;;;;;;;1.20;1.17;;;;;;;25.32;45.40;97966.16;5047350;28;20214;-44
2023/08/10 07:02:19;;;;;;;1.70;1.43;;;;;;;25.37;46.30;97973.97;5049643;28;20260;-47
2023/08/10 07:04:45;;;;;;;1.20;1.10;;;;;;;25.23;46.60;97958.22;5038079;28;20402;-38
2023/08/10 07:07:12;;;;;;;1.53;1.33;;;;;;;25.35;46.32;97973.06;5049213;28;20202;-41
2023/08/10 07:09:39;;;;;;;1.27;1.17;;;;;;;25.17;45.28;97953.78;5056030;28;20230;-45
2023/08/10 07:12:06;;;;;;;1.47;1.37;;;;;;;25.40;46.14;97989.47;5040185;28;20214;-53
2023/08/10 07:14:32;;;;;;;1.30;1.20;;;;;;;25.36;46.66;97985.09;5034103;28;20205;-45
2023/08/10 07:16:59;;;;;;;1.53;1.30;;;;;;;25.31;46.38;97979.81;5050694;28;20202;-54
2023/08/10 07:19:26;;;;;;;2.37;1.30;;;;;;;25.35;45.25;97988.50;5055526;28;20269;-46
2023/08/10 07:21:55;;;;;;;1.27;1.17;;;;;;;25.34;45.92;97976.47;5056666;28;20182;-33
2023/08/10 07:24:25;;;;;;;1.43;1.30;;;;;;;25.23;46.54;97968.50;5047625;28;20202;-52
2023/08/10 07:26:52;;;;;;;1.80;1.30;;;;;;;25.27;46.70;97979.72;5056695;28;20197;-44
2023/08/10 07:29:19;;;;;;;1.40;1.17;;;;;;;25.25;45.90;97977.09;5041656;28;20229;-47
2023/08/10 07:31:46;;;;;;;1.20;1.10;;;;;;;25.40;45.99;98003.19;5050305;28;20234;-41
2023/08/10 07:34:12;;;;;;;1.40;1.30;;;;;;;25.37;46.32;98000.56;5055032;28;20237;-44
2023/08/10 07:36:39;;;;;;;1.40;1.30;;;;;;;25.36;46.88;97996.25;5038672;28;20204;-51
2023/08/10 07:39:06;;;;;;;1.40;1.30;;;;;;;25.40;46.19;98002.34;5047904;28;20202;-57
2023/08/10 07:41:32;;;;;;;2.20;1.20;;;;;;;25.20;45.66;97960.72;5058551;28;20202;-56
2023/08/10 07:43:59;;;;;;;1.37;1.27;;;;;;;25.38;45.98;97999.75;5038524;28;20209;-37
2023/08/10 07:46:27;;;;;;;1.40;1.30;;;;;;;25.38;46.48;98001.44;5049072;28;21239;-48
2023/08/10 07:48:53;;;;;;;1.37;1.27;;;;;;;25.32;46.37;97988.41;5041455;28;20270;-38
2023/08/10 07:51:20;;;;;;;1.77;1.30;;;;;;;25.31;45.42;97986.69;5049078;28;20202;-43
2023/08/10 07:53:46;;;;;;;1.40;1.30;;;;;;;25.42;46.27;98011.81;5055244;28;20206;-47
2023/08/10 07:56:13;;;;;;;1.53;1.40;;;;;;;25.35;46.23;97996.22;5046081;28;20218;-44
2023/08/10 07:58:40;;;;;;;1.40;1.10;;;;;;;25.40;46.52;98015.22;5055781;28;20241;-46
2023/08/10 08:01:07;;;;;;;1.67;1.33;;;;;;;25.30;45.80;97993.50;5039548;28;20584;-54
2023/08/10 08:03:34;;;;;;;0.93;0.90;;;;;;;25.37;45.71;97999.72;5044504;28;20198;-41
2023/08/10 08:06:01;;;;;;;2.43;1.30;;;;;;;25.42;46.28;98016.09;5056885;28;20375;-46
2023/08/10 08:08:28;;;;;;;1.33;1.23;;;;;;;25.40;46.38;98005.78;5055359;28;20202;-42
2023/08/10 08:10:55;;;;;;;1.40;1.30;;;;;;;25.27;46.23;97980.59;5051281;28;20206;-41
2023/08/10 08:13:22;;;;;;;2.43;1.60;;;;;;;25.42;45.42;98004.09;5066113;28;20212;-42
2023/08/10 08:15:49;;;;;;;1.43;1.30;;;;;;;25.31;46.22;97990.09;5050864;28;20181;-52
2023/08/10 08:18:41;;;;;;;2.90;1.30;;;;;;;25.43;46.41;98015.28;5058803;28;20201;-43
2023/08/10 08:21:08;;;;;;;1.70;1.23;;;;;;;25.39;46.36;98009.19;5050969;28;20198;-38
2023/08/10 08:23:35;;;;;;;2.03;1.40;;;;;;;25.32;45.87;97988.41;5051624;28;20199;-47
2023/08/10 08:26:02;;;;;;;1.60;1.13;;;;;;;25.40;45.79;98000.63;5060966;28;20201;-46
2023/08/10 08:28:28;;;;;;;1.73;1.20;;;;;;;25.25;46.24;97973.69;5054621;28;20189;-46
2023/08/10 08:30:55;;;;;;;1.57;1.30;;;;;;;25.31;46.67;97979.81;5057463;28;20190;-40
2023/08/10 08:33:21;;;;;;;1.30;1.20;;;;;;;25.41;46.45;98004.94;5053149;28;20205;-44
2023/08/10 08:35:48;;;;;;;1.43;1.27;;;;;;;25.30;45.66;97985.78;5053596;28;20231;-50
2023/08/10 08:38:15;;;;;;;1.47;1.10;;;;;;;25.40;46.12;97995.47;5057906;28;20236;-45
2023/08/10 08:40:42;;;;;;;1.40;1.30;;;;;;;25.31;46.51;97989.25;5063745;28;20244;-37
2023/08/10 08:43:08;;;;;;;2.03;1.40;;;;;;;25.31;46.46;97987.53;5059088;28;20178;-48
2023/08/10 08:45:35;;;;;;;1.10;1.10;;;;;;;25.31;45.57;97984.09;5045135;28;20249;-47
2023/08/10 08:48:05;;;;;;;1.40;1.30;;;;;;;25.13;45.91;97956.25;5028903;28;20201;-47
2023/08/10 08:50:32;;;;;;;1.50;1.30;;;;;;;25.35;45.97;98004.81;5013293;28;20220;-57
2023/08/10 08:52:59;;;;;;;2.10;1.20;;;;;;;25.44;46.50;98017.00;5041828;28;20178;-51
2023/08/10 08:55:26;;;;;;;1.87;1.40;;;;;;;25.32;46.14;97988.41;5031608;28;20226;-48
2023/08/10 08:57:53;;;;;;;1.33;1.23;;;;;;;25.29;45.47;97981.50;5043162;28;20190;-35
2023/08/10 09:00:19;;;;;;;1.43;1.20;;;;;;;25.30;45.96;97987.50;5062567;28;20224;-39
2023/08/10 09:02:46;;;;;;;3.73;1.30;;;;;;;25.43;45.94;98017.84;5060952;28;20194;-42
2023/08/10 09:05:13;;;;;;;1.70;1.40;;;;;;;25.22;46.56;97974.47;5050753;28;20368;-35
2023/08/10 09:07:39;;;;;;;1.43;1.33;;;;;;;25.33;45.87;97993.63;5057631;28;20189;-36
2023/08/10 09:10:06;;;;;;;1.60;1.50;;;;;;;25.42;45.32;98003.22;5039110;28;20249;-44
2023/08/10 09:12:34;;;;;;;1.43;1.33;;;;;;;25.45;44.58;98013.59;5037770;28;20209;-46
2023/08/10 09:15:03;;;;;;;1.30;1.13;;;;;;;25.48;43.95;98006.81;5052307;28;20205;-42
2023/08/10 09:17:33;;;;;;;3.63;1.30;;;;;;;25.37;43.39;97989.41;5051748;28;20194;-56
2023/08/10 09:20:00;;;;;;;2.63;1.40;;;;;;;25.42;43.32;97987.78;5057782;28;20218;-51
2023/08/10 09:22:32;;;;;;;1.23;1.13;;;;;;;25.50;43.92;98010.28;5055590;28;20213;-39
2023/08/10 09:24:59;;;;;;;1.77;1.40;;;;;;;25.32;44.51;97975.53;5054648;28;20212;-54
2023/08/10 09:27:28;;;;;;;1.33;1.23;;;;;;;25.38;44.67;97988.56;5053720;28;20181;-52
2023/08/10 09:29:59;;;;;;;1.83;1.30;;;;;;;25.31;44.68;97976.38;5052378;28;20236;-42
2023/08/10 09:32:25;;;;;;;1.93;1.40;;;;;;;25.46;44.31;98000.75;5055069;28;20194;-39
2023/08/10 09:34:52;;;;;;;1.70;1.23;;;;;;;25.30;44.59;97966.91;5053743;28;20718;-42
2023/08/10 09:37:19;;;;;;;1.27;1.17;;;;;;;25.22;44.98;97951.31;5056397;28;20220;-47
2023/08/10 09:39:46;;;;;;;1.43;1.30;;;;;;;25.41;45.07;97996.34;5053277;28;20222;-48
2023/08/10 09:42:13;;;;;;;1.53;1.30;;;;;;;25.30;44.87;97975.50;5059472;28;20178;-47
2023/08/10 09:44:43;;;;;;;1.40;1.30;;;;;;;25.32;44.35;97981.59;5057380;28;20190;-44
2023/08/10 09:47:11;;;;;;;1.70;1.20;;;;;;;25.31;45.01;97977.22;5049967;28;20260;-54
2023/08/10 09:49:56;;;;;;;1.37;1.27;;;;;;;25.43;45.09;98002.41;5046475;28;20238;-52
2023/08/10 09:52:23;;;;;;;1.60;1.20;;;;;;;25.40;44.92;97998.03;5056454;28;20188;-45
2023/08/10 09:54:50;;;;;;;1.57;1.33;;;;;;;25.40;44.57;97994.63;5040325;28;20226;-45
2023/08/10 09:57:18;;;;;;;1.30;1.20;;;;;;;25.38;44.63;97994.59;5051097;28;20180;-38
2023/08/10 09:59:45;;;;;;;1.47;1.10;;;;;;;25.34;44.88;97984.19;5054839;28;20218;-47
2023/08/10 10:02:11;;;;;;;2.90;1.10;;;;;;;25.35;44.77;97985.94;5053548;28;20229;-57
2023/08/10 10:04:38;;;;;;;1.27;1.17;;;;;;;25.42;44.47;97992.94;5051217;28;20189;-40
2023/08/10 10:07:08;;;;;;;1.40;1.30;;;;;;;25.24;44.84;97964.19;5037678;28;20212;-39
2023/08/10 10:09:40;;;;;;;1.97;1.17;;;;;;;25.24;45.16;97956.47;5046684;28;20206;-45
2023/08/10 10:12:07;;;;;;;1.30;1.20;;;;;;;25.38;44.96;97980.84;5053327;28;20181;-47
2023/08/10 10:14:35;;;;;;;2.40;1.20;;;;;;;25.20;44.58;97952.13;5048659;28;20240;-42
2023/08/10 10:17:02;;;;;;;1.30;1.20;;;;;;;25.25;45.06;97950.53;5039072;28;20190;-44
2023/08/10 10:19:29;;;;;;;1.50;1.20;;;;;;;25.34;45.38;97969.59;5031673;28;20213;-44
2023/08/10 10:21:56;;;;;;;1.60;1.10;;;;;;;25.29;45.00;97966.06;5051389;28;20185;-42
2023/08/10 10:24:25;;;;;;;1.77;1.27;;;;;;;25.42;44.93;97985.22;5034878;28;20182;-41
2023/08/10 10:26:58;;;;;;;1.60;1.17;;;;;;;25.22;44.73;97950.47;5016658;28;20190;-55
2023/08/10 10:30:01;;;;;;;0.97;0.97;;;;;;;25.40;45.17;97976.63;5050030;28;20515;-55
2023/08/10 10:32:27;;;;;;;2.60;1.30;;;;;;;25.37;44.41;97971.41;5042522;28;20185;-36
2023/08/10 10:34:54;;;;;;;1.30;1.20;;;;;;;25.11;44.98;97929.66;5054926;28;20221;-48
2023/08/10 10:37:27;;;;;;;1.20;1.10;;;;;;;25.40;45.04;97982.59;5055630;28;20220;-48
2023/08/10 10:40:12;;;;;;;1.30;1.17;;;;;;;25.40;44.95;97974.03;5049330;28;20210;-36
2023/08/10 10:43:01;;;;;;;2.27;1.10;;;;;;;25.43;44.54;97977.53;5037378;28;20206;-51
2023/08/10 10:45:28;;;;;;;1.30;1.20;;;;;;;25.04;45.08;97910.63;5049742;28;20186;-39
2023/08/10 10:47:55;;;;;;;1.27;1.17;;;;;;;25.18;45.31;97939.22;5047529;28;20225;-45
2023/08/10 10:50:28;;;;;;;1.23;1.10;;;;;;;25.30;44.22;97954.91;5048866;28;20217;-43
2023/08/10 10:52:55;;;;;;;1.30;1.10;;;;;;;25.43;44.31;97974.94;5046606;28;20202;-34
2023/08/10 10:55:29;;;;;;;0.90;0.90;;;;;;;25.36;44.73;97960.22;5051882;28;20202;-46
2023/08/10 10:57:55;;;;;;;1.20;1.10;;;;;;;25.22;44.91;97938.44;5049499;28;20198;-39
2023/08/10 11:00:23;;;;;;;1.00;1.00;;;;;;;25.23;44.28;97932.47;5045972;28;20205;-42
2023/08/10 11:02:49;;;;;;;1.20;1.10;;;;;;;25.26;44.24;97937.69;5041841;28;20201;-52
2023/08/10 11:05:17;;;;;;;1.40;1.30;;;;;;;25.28;44.83;97945.44;5031409;28;20234;-49
2023/08/10 11:07:44;;;;;;;1.13;1.03;;;;;;;25.27;45.20;97949.72;5056725;28;20208;-46
2023/08/10 11:10:11;;;;;;;0.90;0.90;;;;;;;25.26;44.10;97942.84;5052809;28;20235;-46
2023/08/10 11:12:38;;;;;;;1.10;1.00;;;;;;;25.25;44.39;97938.50;5056224;28;20189;-43
2023/08/10 11:15:06;;;;;;;1.30;1.10;;;;;;;25.31;44.68;97945.50;5048661;28;20225;-53
2023/08/10 11:17:34;;;;;;;1.90;1.17;;;;;;;25.31;45.01;97942.94;5053208;28;20184;-42
2023/08/10 11:20:14;;;;;;;1.13;1.10;;;;;;;25.26;43.99;97929.97;5037021;28;20213;-56
2023/08/10 11:22:42;;;;;;;1.03;1.00;;;;;;;25.22;44.51;97917.88;5056503;28;20228;-51
2023/08/10 11:25:10;;;;;;;1.37;1.10;;;;;;;25.39;44.57;97942.28;5064308;28;20186;-45
2023/08/10 11:27:39;;;;;;;1.03;1.00;;;;;;;25.42;44.54;97941.47;5055922;28;20261;-52
2023/08/10 11:30:06;;;;;;;0.90;0.90;;;;;;;25.30;44.54;97926.63;5056952;28;20205;-46
2023/08/10 11:32:32;;;;;;;1.27;1.03;;;;;;;25.28;44.77;97919.72;5055734;28;20244;-35
2023/08/10 11:34:59;;;;;;;1.03;0.90;;;;;;;25.26;44.74;97914.53;5039399;28;20217;-42
2023/08/10 11:37:33;;;;;;;1.23;1.13;;;;;;;25.23;44.67;97911.91;5051113;28;20174;-45